sensor_id;sensor_type;location;lat;lon;timestamp;P1;durP1;ratioP1;P2;durP2;ratioP2
17024;SDS011;8629;42.496;25.620;2024-03-02T00:00:48;27.47;;;14.90;;
17024;SDS011;8629;42.496;25.620;2024-03-02T00:03:15;21.87;;;14.80;;
17024;SDS011;8629;42.496;25.620;2024-03-02T00:05:42;20.57;;;14.70;;
17024;SDS011;8629;42.496;25.620;2024-03-02T00:08:12;22.43;;;15.87;;
17024;SDS011;8629;42.496;25.620;2024-03-02T00:10:45;16.67;;;11.97;;
17024;SDS011;8629;42.496;25.620;2024-03-02T00:13:12;15.60;;;12.33;;
17024;SDS011;8629;42.496;25.620;2024-03-02T00:15:40;24.07;;;14.57;;
17024;SDS011;8629;42.496;25.620;2024-03-02T00:18:10;20.57;;;13.30;;
17024;SDS011;8629;42.496;25.620;2024-03-02T00:20:38;21.87;;;13.03;;
17024;SDS011;8629;42.496;25.620;2024-03-02T00:29:04;27.00;;;14.07;;
17024;SDS011;8629;42.496;25.620;2024-03-02T00:31:30;25.00;;;13.87;;
17024;SDS011;8629;42.496;25.620;2024-03-02T00:33:58;27.73;;;14.70;;
17024;SDS011;8629;42.496;25.620;2024-03-02T00:36:29;56.67;;;31.53;;
17024;SDS011;8629;42.496;25.620;2024-03-02T00:38:56;24.60;;;15.87;;
17024;SDS011;8629;42.496;25.620;2024-03-02T00:41:24;32.80;;;18.10;;
17024;SDS011;8629;42.496;25.620;2024-03-02T00:44:04;30.03;;;17.60;;
17024;SDS011;8629;42.496;25.620;2024-03-02T00:46:33;37.47;;;19.33;;
17024;SDS011;8629;42.496;25.620;2024-03-02T00:49:02;36.53;;;19.53;;
17024;SDS011;8629;42.496;25.620;2024-03-02T00:51:30;31.17;;;18.67;;
17024;SDS011;8629;42.496;25.620;2024-03-02T00:53:59;34.33;;;17.73;;
17024;SDS011;8629;42.496;25.620;2024-03-02T00:56:29;32.57;;;18.27;;
17024;SDS011;8629;42.496;25.620;2024-03-02T00:58:56;28.93;;;17.13;;
17024;SDS011;8629;42.496;25.620;2024-03-02T01:01:24;25.00;;;15.07;;
17024;SDS011;8629;42.496;25.620;2024-03-02T01:03:51;22.80;;;14.53;;
17024;SDS011;8629;42.496;25.620;2024-03-02T01:06:18;21.93;;;13.53;;
17024;SDS011;8629;42.496;25.620;2024-03-02T01:08:45;22.90;;;13.23;;
17024;SDS011;8629;42.496;25.620;2024-03-02T01:11:16;23.27;;;13.63;;
17024;SDS011;8629;42.496;25.620;2024-03-02T01:13:43;24.13;;;13.63;;
17024;SDS011;8629;42.496;25.620;2024-03-02T01:16:10;19.27;;;12.23;;
17024;SDS011;8629;42.496;25.620;2024-03-02T01:18:38;18.50;;;13.10;;
17024;SDS011;8629;42.496;25.620;2024-03-02T01:21:05;20.07;;;13.13;;
17024;SDS011;8629;42.496;25.620;2024-03-02T01:23:31;21.83;;;13.47;;
17024;SDS011;8629;42.496;25.620;2024-03-02T01:25:58;18.10;;;13.07;;
17024;SDS011;8629;42.496;25.620;2024-03-02T01:28:25;24.37;;;13.07;;
17024;SDS011;8629;42.496;25.620;2024-03-02T01:30:52;24.67;;;14.33;;
17024;SDS011;8629;42.496;25.620;2024-03-02T01:33:19;26.77;;;14.40;;
17024;SDS011;8629;42.496;25.620;2024-03-02T01:35:48;27.67;;;13.97;;
17024;SDS011;8629;42.496;25.620;2024-03-02T01:38:14;24.90;;;13.47;;
17024;SDS011;8629;42.496;25.620;2024-03-02T01:40:41;26.20;;;14.33;;
17024;SDS011;8629;42.496;25.620;2024-03-02T01:43:09;25.47;;;15.40;;
17024;SDS011;8629;42.496;25.620;2024-03-02T01:45:36;23.40;;;14.47;;
17024;SDS011;8629;42.496;25.620;2024-03-02T01:48:03;25.43;;;14.60;;
17024;SDS011;8629;42.496;25.620;2024-03-02T01:50:31;35.90;;;15.20;;
17024;SDS011;8629;42.496;25.620;2024-03-02T01:53:00;27.37;;;15.37;;
17024;SDS011;8629;42.496;25.620;2024-03-02T01:55:28;29.87;;;15.73;;
17024;SDS011;8629;42.496;25.620;2024-03-02T01:57:55;28.33;;;16.10;;
17024;SDS011;8629;42.496;25.620;2024-03-02T02:00:22;30.60;;;15.33;;
17024;SDS011;8629;42.496;25.620;2024-03-02T02:02:51;27.23;;;16.50;;
17024;SDS011;8629;42.496;25.620;2024-03-02T02:05:18;33.17;;;16.63;;
17024;SDS011;8629;42.496;25.620;2024-03-02T02:07:45;33.47;;;16.67;;
17024;SDS011;8629;42.496;25.620;2024-03-02T02:10:14;29.73;;;16.47;;
17024;SDS011;8629;42.496;25.620;2024-03-02T02:12:40;40.33;;;19.37;;
17024;SDS011;8629;42.496;25.620;2024-03-02T02:15:23;41.63;;;20.60;;
17024;SDS011;8629;42.496;25.620;2024-03-02T02:17:54;32.70;;;18.60;;
17024;SDS011;8629;42.496;25.620;2024-03-02T02:20:21;36.40;;;17.53;;
17024;SDS011;8629;42.496;25.620;2024-03-02T02:22:56;38.23;;;19.17;;
17024;SDS011;8629;42.496;25.620;2024-03-02T02:25:24;36.40;;;20.27;;
17024;SDS011;8629;42.496;25.620;2024-03-02T02:27:51;40.07;;;19.40;;
17024;SDS011;8629;42.496;25.620;2024-03-02T02:30:18;37.93;;;20.60;;
17024;SDS011;8629;42.496;25.620;2024-03-02T02:32:46;37.57;;;20.03;;
17024;SDS011;8629;42.496;25.620;2024-03-02T02:35:13;43.70;;;20.60;;
17024;SDS011;8629;42.496;25.620;2024-03-02T02:37:40;44.57;;;21.77;;
17024;SDS011;8629;42.496;25.620;2024-03-02T02:40:09;40.87;;;19.97;;
17024;SDS011;8629;42.496;25.620;2024-03-02T02:42:37;46.70;;;26.87;;
17024;SDS011;8629;42.496;25.620;2024-03-02T02:45:04;38.40;;;19.20;;
17024;SDS011;8629;42.496;25.620;2024-03-02T02:47:32;54.40;;;17.23;;
17024;SDS011;8629;42.496;25.620;2024-03-02T02:50:00;33.67;;;16.93;;
17024;SDS011;8629;42.496;25.620;2024-03-02T02:52:30;42.37;;;19.17;;
17024;SDS011;8629;42.496;25.620;2024-03-02T02:55:00;44.90;;;17.67;;
17024;SDS011;8629;42.496;25.620;2024-03-02T02:57:29;31.20;;;17.73;;
17024;SDS011;8629;42.496;25.620;2024-03-02T03:00:00;46.63;;;18.80;;
17024;SDS011;8629;42.496;25.620;2024-03-02T03:02:29;31.43;;;17.60;;
17024;SDS011;8629;42.496;25.620;2024-03-02T03:04:56;33.70;;;18.37;;
17024;SDS011;8629;42.496;25.620;2024-03-02T03:07:22;37.37;;;20.00;;
17024;SDS011;8629;42.496;25.620;2024-03-02T03:09:49;34.00;;;18.37;;
17024;SDS011;8629;42.496;25.620;2024-03-02T03:12:16;33.43;;;17.73;;
17024;SDS011;8629;42.496;25.620;2024-03-02T03:14:44;33.03;;;16.70;;
17024;SDS011;8629;42.496;25.620;2024-03-02T03:17:11;35.10;;;16.30;;
17024;SDS011;8629;42.496;25.620;2024-03-02T03:19:38;33.00;;;17.50;;
17024;SDS011;8629;42.496;25.620;2024-03-02T03:22:05;26.77;;;16.50;;
17024;SDS011;8629;42.496;25.620;2024-03-02T03:24:32;31.70;;;16.70;;
17024;SDS011;8629;42.496;25.620;2024-03-02T03:26:59;32.93;;;18.03;;
17024;SDS011;8629;42.496;25.620;2024-03-02T03:29:25;25.13;;;15.27;;
17024;SDS011;8629;42.496;25.620;2024-03-02T03:31:54;30.03;;;15.83;;
17024;SDS011;8629;42.496;25.620;2024-03-02T03:34:20;33.03;;;17.00;;
17024;SDS011;8629;42.496;25.620;2024-03-02T03:36:50;37.33;;;17.27;;
17024;SDS011;8629;42.496;25.620;2024-03-02T03:39:16;28.33;;;16.67;;
17024;SDS011;8629;42.496;25.620;2024-03-02T03:41:43;29.83;;;16.27;;
17024;SDS011;8629;42.496;25.620;2024-03-02T03:44:10;25.30;;;15.73;;
17024;SDS011;8629;42.496;25.620;2024-03-02T03:46:37;27.80;;;17.00;;
17024;SDS011;8629;42.496;25.620;2024-03-02T03:49:05;28.23;;;16.47;;
17024;SDS011;8629;42.496;25.620;2024-03-02T03:51:32;34.40;;;16.37;;
17024;SDS011;8629;42.496;25.620;2024-03-02T03:54:00;30.20;;;18.23;;
17024;SDS011;8629;42.496;25.620;2024-03-02T03:56:27;28.10;;;16.70;;
17024;SDS011;8629;42.496;25.620;2024-03-02T03:58:54;27.57;;;16.20;;
17024;SDS011;8629;42.496;25.620;2024-03-02T04:01:20;34.63;;;17.93;;
17024;SDS011;8629;42.496;25.620;2024-03-02T04:03:48;29.27;;;15.50;;
17024;SDS011;8629;42.496;25.620;2024-03-02T04:06:16;35.90;;;17.87;;
17024;SDS011;8629;42.496;25.620;2024-03-02T04:08:43;38.70;;;17.20;;
17024;SDS011;8629;42.496;25.620;2024-03-02T04:11:10;35.07;;;16.80;;
17024;SDS011;8629;42.496;25.620;2024-03-02T04:13:37;34.13;;;17.23;;
17024;SDS011;8629;42.496;25.620;2024-03-02T04:16:04;34.47;;;18.07;;
17024;SDS011;8629;42.496;25.620;2024-03-02T04:18:31;41.97;;;18.30;;
17024;SDS011;8629;42.496;25.620;2024-03-02T04:20:58;41.63;;;20.90;;
17024;SDS011;8629;42.496;25.620;2024-03-02T04:23:26;60.30;;;20.70;;
17024;SDS011;8629;42.496;25.620;2024-03-02T04:25:53;40.27;;;18.57;;
17024;SDS011;8629;42.496;25.620;2024-03-02T04:28:20;41.97;;;19.50;;
17024;SDS011;8629;42.496;25.620;2024-03-02T04:30:47;56.67;;;19.13;;
17024;SDS011;8629;42.496;25.620;2024-03-02T04:33:14;85.20;;;23.23;;
17024;SDS011;8629;42.496;25.620;2024-03-02T04:35:41;37.23;;;18.30;;
17024;SDS011;8629;42.496;25.620;2024-03-02T04:38:07;47.83;;;18.50;;
17024;SDS011;8629;42.496;25.620;2024-03-02T04:40:35;45.53;;;18.60;;
17024;SDS011;8629;42.496;25.620;2024-03-02T04:43:02;47.97;;;19.30;;
17024;SDS011;8629;42.496;25.620;2024-03-02T04:45:29;42.57;;;20.70;;
17024;SDS011;8629;42.496;25.620;2024-03-02T04:47:56;43.33;;;22.67;;
17024;SDS011;8629;42.496;25.620;2024-03-02T04:50:23;51.63;;;26.07;;
17024;SDS011;8629;42.496;25.620;2024-03-02T04:52:50;40.40;;;20.10;;
17024;SDS011;8629;42.496;25.620;2024-03-02T04:55:16;40.60;;;20.60;;
17024;SDS011;8629;42.496;25.620;2024-03-02T04:58:01;39.43;;;19.00;;
17024;SDS011;8629;42.496;25.620;2024-03-02T05:00:28;43.00;;;22.13;;
17024;SDS011;8629;42.496;25.620;2024-03-02T05:02:55;47.87;;;24.43;;
17024;SDS011;8629;42.496;25.620;2024-03-02T05:05:22;32.70;;;19.73;;
17024;SDS011;8629;42.496;25.620;2024-03-02T05:07:49;37.83;;;19.30;;
17024;SDS011;8629;42.496;25.620;2024-03-02T05:10:15;43.50;;;19.53;;
17024;SDS011;8629;42.496;25.620;2024-03-02T05:12:42;38.77;;;19.80;;
17024;SDS011;8629;42.496;25.620;2024-03-02T05:15:25;36.43;;;18.13;;
17024;SDS011;8629;42.496;25.620;2024-03-02T05:17:52;38.77;;;19.73;;
17024;SDS011;8629;42.496;25.620;2024-03-02T05:20:19;35.60;;;18.93;;
17024;SDS011;8629;42.496;25.620;2024-03-02T05:22:46;38.30;;;20.27;;
17024;SDS011;8629;42.496;25.620;2024-03-02T05:25:13;39.13;;;20.47;;
17024;SDS011;8629;42.496;25.620;2024-03-02T05:27:40;44.97;;;20.87;;
17024;SDS011;8629;42.496;25.620;2024-03-02T05:30:08;51.53;;;25.03;;
17024;SDS011;8629;42.496;25.620;2024-03-02T05:32:37;127.63;;;82.00;;
17024;SDS011;8629;42.496;25.620;2024-03-02T05:35:04;63.37;;;36.07;;
17024;SDS011;8629;42.496;25.620;2024-03-02T05:37:33;66.37;;;31.23;;
17024;SDS011;8629;42.496;25.620;2024-03-02T05:39:59;48.53;;;22.60;;
17024;SDS011;8629;42.496;25.620;2024-03-02T05:42:26;42.67;;;21.67;;
17024;SDS011;8629;42.496;25.620;2024-03-02T05:44:53;45.73;;;22.83;;
17024;SDS011;8629;42.496;25.620;2024-03-02T05:47:20;42.30;;;20.53;;
17024;SDS011;8629;42.496;25.620;2024-03-02T05:49:48;39.83;;;22.33;;
17024;SDS011;8629;42.496;25.620;2024-03-02T05:52:15;51.53;;;20.00;;
17024;SDS011;8629;42.496;25.620;2024-03-02T05:54:42;45.30;;;21.17;;
17024;SDS011;8629;42.496;25.620;2024-03-02T05:57:09;51.43;;;22.57;;
17024;SDS011;8629;42.496;25.620;2024-03-02T05:59:58;84.53;;;35.97;;
17024;SDS011;8629;42.496;25.620;2024-03-02T06:02:26;51.70;;;25.43;;
17024;SDS011;8629;42.496;25.620;2024-03-02T06:04:55;50.97;;;22.77;;
17024;SDS011;8629;42.496;25.620;2024-03-02T06:07:24;46.60;;;20.77;;
17024;SDS011;8629;42.496;25.620;2024-03-02T06:09:51;45.23;;;23.43;;
17024;SDS011;8629;42.496;25.620;2024-03-02T06:12:18;55.63;;;26.07;;
17024;SDS011;8629;42.496;25.620;2024-03-02T06:14:45;38.77;;;21.07;;
17024;SDS011;8629;42.496;25.620;2024-03-02T06:17:12;42.73;;;20.47;;
17024;SDS011;8629;42.496;25.620;2024-03-02T06:19:38;48.93;;;25.17;;
17024;SDS011;8629;42.496;25.620;2024-03-02T06:22:09;52.30;;;23.13;;
17024;SDS011;8629;42.496;25.620;2024-03-02T06:24:36;42.33;;;21.93;;
17024;SDS011;8629;42.496;25.620;2024-03-02T06:27:03;46.33;;;22.67;;
17024;SDS011;8629;42.496;25.620;2024-03-02T06:29:32;45.10;;;21.83;;
17024;SDS011;8629;42.496;25.620;2024-03-02T06:31:59;44.60;;;21.87;;
17024;SDS011;8629;42.496;25.620;2024-03-02T06:34:25;46.43;;;20.60;;
17024;SDS011;8629;42.496;25.620;2024-03-02T06:36:53;45.60;;;22.63;;
17024;SDS011;8629;42.496;25.620;2024-03-02T06:39:21;50.50;;;21.17;;
17024;SDS011;8629;42.496;25.620;2024-03-02T06:41:48;46.17;;;24.70;;
17024;SDS011;8629;42.496;25.620;2024-03-02T06:44:15;46.53;;;20.67;;
17024;SDS011;8629;42.496;25.620;2024-03-02T06:46:41;41.93;;;20.57;;
17024;SDS011;8629;42.496;25.620;2024-03-02T06:49:08;38.63;;;18.10;;
17024;SDS011;8629;42.496;25.620;2024-03-02T06:51:35;29.23;;;17.13;;
17024;SDS011;8629;42.496;25.620;2024-03-02T06:54:02;36.93;;;17.87;;
17024;SDS011;8629;42.496;25.620;2024-03-02T06:56:31;38.53;;;18.00;;
17024;SDS011;8629;42.496;25.620;2024-03-02T06:58:58;36.30;;;18.60;;
17024;SDS011;8629;42.496;25.620;2024-03-02T07:01:24;38.70;;;18.63;;
17024;SDS011;8629;42.496;25.620;2024-03-02T07:03:53;32.87;;;18.13;;
17024;SDS011;8629;42.496;25.620;2024-03-02T07:06:20;29.17;;;16.37;;
17024;SDS011;8629;42.496;25.620;2024-03-02T07:08:46;30.93;;;17.97;;
17024;SDS011;8629;42.496;25.620;2024-03-02T07:11:13;37.00;;;21.17;;
17024;SDS011;8629;42.496;25.620;2024-03-02T07:13:41;30.97;;;19.17;;
17024;SDS011;8629;42.496;25.620;2024-03-02T07:16:08;27.30;;;16.77;;
17024;SDS011;8629;42.496;25.620;2024-03-02T07:18:55;31.67;;;21.07;;
17024;SDS011;8629;42.496;25.620;2024-03-02T07:21:21;30.40;;;15.93;;
17024;SDS011;8629;42.496;25.620;2024-03-02T07:23:51;24.13;;;15.33;;
17024;SDS011;8629;42.496;25.620;2024-03-02T07:26:18;28.13;;;16.97;;
17024;SDS011;8629;42.496;25.620;2024-03-02T07:28:47;25.63;;;15.73;;
17024;SDS011;8629;42.496;25.620;2024-03-02T07:31:14;28.37;;;16.47;;
17024;SDS011;8629;42.496;25.620;2024-03-02T07:33:43;26.27;;;16.63;;
17024;SDS011;8629;42.496;25.620;2024-03-02T07:36:10;27.53;;;15.77;;
17024;SDS011;8629;42.496;25.620;2024-03-02T07:38:37;27.03;;;16.03;;
17024;SDS011;8629;42.496;25.620;2024-03-02T07:41:05;28.30;;;16.67;;
17024;SDS011;8629;42.496;25.620;2024-03-02T07:43:32;27.07;;;17.00;;
17024;SDS011;8629;42.496;25.620;2024-03-02T07:46:01;30.07;;;16.80;;
17024;SDS011;8629;42.496;25.620;2024-03-02T07:48:28;28.80;;;17.20;;
17024;SDS011;8629;42.496;25.620;2024-03-02T07:50:56;25.93;;;15.27;;
17024;SDS011;8629;42.496;25.620;2024-03-02T07:53:22;27.93;;;18.30;;
17024;SDS011;8629;42.496;25.620;2024-03-02T07:55:49;27.37;;;18.07;;
17024;SDS011;8629;42.496;25.620;2024-03-02T07:58:16;23.83;;;17.23;;
17024;SDS011;8629;42.496;25.620;2024-03-02T08:00:44;31.90;;;18.43;;
17024;SDS011;8629;42.496;25.620;2024-03-02T08:03:13;27.37;;;17.63;;
17024;SDS011;8629;42.496;25.620;2024-03-02T08:05:40;27.13;;;16.93;;
17024;SDS011;8629;42.496;25.620;2024-03-02T08:08:07;41.07;;;23.00;;
17024;SDS011;8629;42.496;25.620;2024-03-02T08:10:33;27.33;;;17.20;;
17024;SDS011;8629;42.496;25.620;2024-03-02T08:13:03;31.73;;;18.13;;
17024;SDS011;8629;42.496;25.620;2024-03-02T08:15:30;25.17;;;15.93;;
17024;SDS011;8629;42.496;25.620;2024-03-02T08:17:57;28.03;;;18.20;;
17024;SDS011;8629;42.496;25.620;2024-03-02T08:20:25;27.53;;;16.20;;
17024;SDS011;8629;42.496;25.620;2024-03-02T08:22:52;26.77;;;15.73;;
17024;SDS011;8629;42.496;25.620;2024-03-02T08:25:20;26.53;;;16.30;;
17024;SDS011;8629;42.496;25.620;2024-03-02T08:27:47;24.47;;;14.60;;
17024;SDS011;8629;42.496;25.620;2024-03-02T08:30:14;24.47;;;15.57;;
17024;SDS011;8629;42.496;25.620;2024-03-02T08:32:41;25.03;;;15.77;;
17024;SDS011;8629;42.496;25.620;2024-03-02T08:35:08;23.00;;;15.40;;
17024;SDS011;8629;42.496;25.620;2024-03-02T08:37:36;27.20;;;17.07;;
17024;SDS011;8629;42.496;25.620;2024-03-02T08:40:06;27.50;;;16.00;;
17024;SDS011;8629;42.496;25.620;2024-03-02T08:42:34;23.30;;;15.43;;
17024;SDS011;8629;42.496;25.620;2024-03-02T08:45:01;27.03;;;18.47;;
17024;SDS011;8629;42.496;25.620;2024-03-02T08:47:28;29.20;;;18.33;;
17024;SDS011;8629;42.496;25.620;2024-03-02T08:49:55;26.20;;;17.47;;
17024;SDS011;8629;42.496;25.620;2024-03-02T08:52:22;22.90;;;15.80;;
17024;SDS011;8629;42.496;25.620;2024-03-02T08:54:50;24.30;;;16.03;;
17024;SDS011;8629;42.496;25.620;2024-03-02T08:57:17;27.10;;;17.53;;
17024;SDS011;8629;42.496;25.620;2024-03-02T08:59:43;21.80;;;16.30;;
17024;SDS011;8629;42.496;25.620;2024-03-02T09:02:10;24.97;;;16.63;;
17024;SDS011;8629;42.496;25.620;2024-03-02T09:04:37;26.07;;;18.87;;
17024;SDS011;8629;42.496;25.620;2024-03-02T09:07:07;33.87;;;20.37;;
17024;SDS011;8629;42.496;25.620;2024-03-02T09:09:33;28.17;;;18.60;;
17024;SDS011;8629;42.496;25.620;2024-03-02T09:12:02;30.47;;;18.23;;
17024;SDS011;8629;42.496;25.620;2024-03-02T09:14:29;32.03;;;20.83;;
17024;SDS011;8629;42.496;25.620;2024-03-02T09:16:55;29.40;;;18.70;;
17024;SDS011;8629;42.496;25.620;2024-03-02T09:19:22;24.97;;;16.40;;
17024;SDS011;8629;42.496;25.620;2024-03-02T09:21:49;31.50;;;20.67;;
17024;SDS011;8629;42.496;25.620;2024-03-02T09:24:16;26.13;;;15.87;;
17024;SDS011;8629;42.496;25.620;2024-03-02T09:26:43;30.93;;;17.73;;
17024;SDS011;8629;42.496;25.620;2024-03-02T09:29:11;31.07;;;18.53;;
17024;SDS011;8629;42.496;25.620;2024-03-02T09:31:41;28.13;;;16.80;;
17024;SDS011;8629;42.496;25.620;2024-03-02T09:34:09;30.90;;;17.67;;
17024;SDS011;8629;42.496;25.620;2024-03-02T09:36:36;28.10;;;17.90;;
17024;SDS011;8629;42.496;25.620;2024-03-02T09:39:02;34.10;;;20.23;;
17024;SDS011;8629;42.496;25.620;2024-03-02T09:41:30;36.97;;;22.53;;
17024;SDS011;8629;42.496;25.620;2024-03-02T09:43:57;38.03;;;20.00;;
17024;SDS011;8629;42.496;25.620;2024-03-02T09:46:25;39.53;;;22.23;;
17024;SDS011;8629;42.496;25.620;2024-03-02T09:48:52;32.30;;;20.23;;
17024;SDS011;8629;42.496;25.620;2024-03-02T09:51:19;38.73;;;21.43;;
17024;SDS011;8629;42.496;25.620;2024-03-02T09:53:46;30.00;;;17.73;;
17024;SDS011;8629;42.496;25.620;2024-03-02T09:56:13;26.97;;;18.37;;
17024;SDS011;8629;42.496;25.620;2024-03-02T09:58:41;21.20;;;16.17;;
17024;SDS011;8629;42.496;25.620;2024-03-02T10:01:09;24.43;;;17.77;;
17024;SDS011;8629;42.496;25.620;2024-03-02T10:03:37;23.50;;;16.20;;
17024;SDS011;8629;42.496;25.620;2024-03-02T10:06:21;20.80;;;15.33;;
17024;SDS011;8629;42.496;25.620;2024-03-02T10:08:49;21.13;;;14.93;;
17024;SDS011;8629;42.496;25.620;2024-03-02T10:11:26;20.30;;;14.90;;
17024;SDS011;8629;42.496;25.620;2024-03-02T10:14:04;23.30;;;15.50;;
17024;SDS011;8629;42.496;25.620;2024-03-02T10:16:34;19.47;;;14.57;;
17024;SDS011;8629;42.496;25.620;2024-03-02T10:19:19;21.37;;;15.70;;
17024;SDS011;8629;42.496;25.620;2024-03-02T10:21:46;24.33;;;15.03;;
17024;SDS011;8629;42.496;25.620;2024-03-02T10:24:14;24.13;;;15.97;;
17024;SDS011;8629;42.496;25.620;2024-03-02T10:26:41;24.67;;;15.43;;
17024;SDS011;8629;42.496;25.620;2024-03-02T10:29:08;16.17;;;11.13;;
17024;SDS011;8629;42.496;25.620;2024-03-02T10:31:36;22.80;;;16.23;;
17024;SDS011;8629;42.496;25.620;2024-03-02T10:34:03;19.60;;;15.03;;
17024;SDS011;8629;42.496;25.620;2024-03-02T10:36:32;17.20;;;13.97;;
17024;SDS011;8629;42.496;25.620;2024-03-02T10:39:01;21.10;;;15.57;;
17024;SDS011;8629;42.496;25.620;2024-03-02T10:41:29;26.67;;;16.33;;
17024;SDS011;8629;42.496;25.620;2024-03-02T10:43:59;19.87;;;15.77;;
17024;SDS011;8629;42.496;25.620;2024-03-02T10:46:28;23.33;;;16.87;;
17024;SDS011;8629;42.496;25.620;2024-03-02T10:48:56;22.90;;;17.10;;
17024;SDS011;8629;42.496;25.620;2024-03-02T10:51:24;22.43;;;15.03;;
17024;SDS011;8629;42.496;25.620;2024-03-02T10:53:55;21.53;;;16.83;;
17024;SDS011;8629;42.496;25.620;2024-03-02T10:56:26;19.77;;;15.80;;
17024;SDS011;8629;42.496;25.620;2024-03-02T10:58:55;22.53;;;17.73;;
17024;SDS011;8629;42.496;25.620;2024-03-02T11:01:28;21.90;;;15.37;;
17024;SDS011;8629;42.496;25.620;2024-03-02T11:03:57;18.30;;;14.03;;
17024;SDS011;8629;42.496;25.620;2024-03-02T11:06:26;24.07;;;16.93;;
17024;SDS011;8629;42.496;25.620;2024-03-02T11:08:58;23.10;;;16.13;;
17024;SDS011;8629;42.496;25.620;2024-03-02T11:11:32;22.00;;;16.23;;
17024;SDS011;8629;42.496;25.620;2024-03-02T11:14:02;21.37;;;16.03;;
17024;SDS011;8629;42.496;25.620;2024-03-02T11:16:34;38.50;;;28.17;;
17024;SDS011;8629;42.496;25.620;2024-03-02T11:19:03;23.93;;;17.60;;
17024;SDS011;8629;42.496;25.620;2024-03-02T11:21:32;19.20;;;15.63;;
17024;SDS011;8629;42.496;25.620;2024-03-02T11:24:01;20.33;;;16.00;;
17024;SDS011;8629;42.496;25.620;2024-03-02T11:27:00;18.27;;;14.90;;
17024;SDS011;8629;42.496;25.620;2024-03-02T11:32:20;17.67;;;14.07;;
17024;SDS011;8629;42.496;25.620;2024-03-02T11:34:49;21.17;;;13.80;;
17024;SDS011;8629;42.496;25.620;2024-03-02T11:37:17;20.37;;;15.13;;
17024;SDS011;8629;42.496;25.620;2024-03-02T11:39:47;23.53;;;13.80;;
17024;SDS011;8629;42.496;25.620;2024-03-02T11:42:16;22.67;;;15.07;;
17024;SDS011;8629;42.496;25.620;2024-03-02T11:44:44;19.70;;;14.37;;
17024;SDS011;8629;42.496;25.620;2024-03-02T11:47:13;15.67;;;11.90;;
17024;SDS011;8629;42.496;25.620;2024-03-02T11:49:42;22.60;;;14.63;;
17024;SDS011;8629;42.496;25.620;2024-03-02T11:52:10;19.47;;;15.37;;
17024;SDS011;8629;42.496;25.620;2024-03-02T11:54:38;17.53;;;14.10;;
17024;SDS011;8629;42.496;25.620;2024-03-02T11:57:13;18.23;;;13.30;;
17024;SDS011;8629;42.496;25.620;2024-03-02T11:59:40;19.73;;;14.40;;
17024;SDS011;8629;42.496;25.620;2024-03-02T12:02:07;19.67;;;14.53;;
17024;SDS011;8629;42.496;25.620;2024-03-02T12:04:40;16.53;;;13.13;;
17024;SDS011;8629;42.496;25.620;2024-03-02T12:07:08;19.67;;;14.37;;
17024;SDS011;8629;42.496;25.620;2024-03-02T12:09:36;17.40;;;12.83;;
17024;SDS011;8629;42.496;25.620;2024-03-02T12:12:03;17.30;;;13.23;;
17024;SDS011;8629;42.496;25.620;2024-03-02T12:14:32;18.17;;;12.40;;
17024;SDS011;8629;42.496;25.620;2024-03-02T12:17:01;19.23;;;13.50;;
17024;SDS011;8629;42.496;25.620;2024-03-02T12:19:28;21.13;;;13.97;;
17024;SDS011;8629;42.496;25.620;2024-03-02T12:21:56;18.53;;;13.33;;
17024;SDS011;8629;42.496;25.620;2024-03-02T12:24:23;20.43;;;14.30;;
17024;SDS011;8629;42.496;25.620;2024-03-02T12:26:54;17.50;;;14.07;;
17024;SDS011;8629;42.496;25.620;2024-03-02T12:29:21;17.83;;;13.30;;
17024;SDS011;8629;42.496;25.620;2024-03-02T12:31:51;25.07;;;15.00;;
17024;SDS011;8629;42.496;25.620;2024-03-02T12:34:18;22.23;;;16.07;;
17024;SDS011;8629;42.496;25.620;2024-03-02T12:36:45;20.93;;;16.87;;
17024;SDS011;8629;42.496;25.620;2024-03-02T12:39:15;24.87;;;14.67;;
17024;SDS011;8629;42.496;25.620;2024-03-02T12:41:42;22.13;;;14.53;;
17024;SDS011;8629;42.496;25.620;2024-03-02T12:44:09;21.47;;;14.30;;
17024;SDS011;8629;42.496;25.620;2024-03-02T12:46:36;26.53;;;18.20;;
17024;SDS011;8629;42.496;25.620;2024-03-02T12:49:08;28.27;;;17.07;;
17024;SDS011;8629;42.496;25.620;2024-03-02T12:51:37;29.17;;;17.97;;
17024;SDS011;8629;42.496;25.620;2024-03-02T12:54:05;21.10;;;15.17;;
17024;SDS011;8629;42.496;25.620;2024-03-02T12:56:32;22.90;;;14.40;;
17024;SDS011;8629;42.496;25.620;2024-03-02T12:59:00;31.90;;;22.83;;
17024;SDS011;8629;42.496;25.620;2024-03-02T13:01:26;88.87;;;59.50;;
17024;SDS011;8629;42.496;25.620;2024-03-02T13:03:54;41.30;;;31.63;;
17024;SDS011;8629;42.496;25.620;2024-03-02T13:06:28;32.70;;;27.03;;
17024;SDS011;8629;42.496;25.620;2024-03-02T13:08:54;25.30;;;20.77;;
17024;SDS011;8629;42.496;25.620;2024-03-02T13:11:22;34.30;;;29.43;;
17024;SDS011;8629;42.496;25.620;2024-03-02T13:13:49;32.60;;;21.20;;
17024;SDS011;8629;42.496;25.620;2024-03-02T13:16:17;29.87;;;18.70;;
17024;SDS011;8629;42.496;25.620;2024-03-02T13:18:45;22.37;;;17.10;;
17024;SDS011;8629;42.496;25.620;2024-03-02T13:21:12;25.87;;;17.80;;
17024;SDS011;8629;42.496;25.620;2024-03-02T13:23:40;30.40;;;18.53;;
17024;SDS011;8629;42.496;25.620;2024-03-02T13:26:07;27.07;;;18.33;;
17024;SDS011;8629;42.496;25.620;2024-03-02T13:28:38;20.83;;;15.73;;
17024;SDS011;8629;42.496;25.620;2024-03-02T13:31:05;25.60;;;18.57;;
17024;SDS011;8629;42.496;25.620;2024-03-02T13:33:32;27.93;;;17.60;;
17024;SDS011;8629;42.496;25.620;2024-03-02T13:35:59;31.93;;;23.90;;
17024;SDS011;8629;42.496;25.620;2024-03-02T13:38:26;23.07;;;17.40;;
17024;SDS011;8629;42.496;25.620;2024-03-02T13:40:55;25.97;;;17.73;;
17024;SDS011;8629;42.496;25.620;2024-03-02T13:43:22;22.93;;;19.27;;
17024;SDS011;8629;42.496;25.620;2024-03-02T13:45:52;19.07;;;15.47;;
17024;SDS011;8629;42.496;25.620;2024-03-02T13:48:19;23.13;;;14.93;;
17024;SDS011;8629;42.496;25.620;2024-03-02T13:50:46;19.97;;;14.90;;
17024;SDS011;8629;42.496;25.620;2024-03-02T13:53:12;24.27;;;17.07;;
17024;SDS011;8629;42.496;25.620;2024-03-02T13:55:39;23.87;;;18.37;;
17024;SDS011;8629;42.496;25.620;2024-03-02T13:58:08;22.73;;;17.20;;
17024;SDS011;8629;42.496;25.620;2024-03-02T14:00:36;22.40;;;15.50;;
17024;SDS011;8629;42.496;25.620;2024-03-02T14:03:03;21.07;;;15.53;;
17024;SDS011;8629;42.496;25.620;2024-03-02T14:05:32;19.77;;;16.33;;
17024;SDS011;8629;42.496;25.620;2024-03-02T14:07:59;21.00;;;16.57;;
17024;SDS011;8629;42.496;25.620;2024-03-02T14:10:26;20.37;;;16.23;;
17024;SDS011;8629;42.496;25.620;2024-03-02T14:12:53;21.20;;;15.70;;
17024;SDS011;8629;42.496;25.620;2024-03-02T14:15:24;20.47;;;17.47;;
17024;SDS011;8629;42.496;25.620;2024-03-02T14:17:51;24.70;;;17.20;;
17024;SDS011;8629;42.496;25.620;2024-03-02T14:20:18;25.07;;;18.20;;
17024;SDS011;8629;42.496;25.620;2024-03-02T14:22:47;24.23;;;17.57;;
17024;SDS011;8629;42.496;25.620;2024-03-02T14:25:14;20.73;;;17.90;;
17024;SDS011;8629;42.496;25.620;2024-03-02T14:27:41;28.37;;;17.47;;
17024;SDS011;8629;42.496;25.620;2024-03-02T14:30:08;45.00;;;26.93;;
17024;SDS011;8629;42.496;25.620;2024-03-02T14:32:37;50.30;;;32.80;;
17024;SDS011;8629;42.496;25.620;2024-03-02T14:35:04;28.43;;;19.50;;